sensor_id;sensor_type;location;lat;lon;timestamp;P1;durP1;ratioP1;P2;durP2;ratioP2
21012;SDS011;10664;53.582;9.712;2023-02-02T00:02:03;14.63;;;3.60;;
21012;SDS011;10664;53.582;9.712;2023-02-02T00:04:30;17.37;;;3.07;;
21012;SDS011;10664;53.582;9.712;2023-02-02T00:06:56;13.53;;;3.03;;
21012;SDS011;10664;53.582;9.712;2023-02-02T00:09:24;17.27;;;3.43;;
21012;SDS011;10664;53.582;9.712;2023-02-02T00:11:51;15.87;;;3.40;;
21012;SDS011;10664;53.582;9.712;2023-02-02T00:14:17;15.30;;;3.73;;
21012;SDS011;10664;53.582;9.712;2023-02-02T00:16:47;15.00;;;3.43;;
21012;SDS011;10664;53.582;9.712;2023-02-02T00:19:21;13.90;;;3.47;;
21012;SDS011;10664;53.582;9.712;2023-02-02T00:21:47;10.23;;;2.73;;
21012;SDS011;10664;53.582;9.712;2023-02-02T00:24:14;11.67;;;3.27;;
21012;SDS011;10664;53.582;9.712;2023-02-02T00:26:42;12.10;;;2.50;;
21012;SDS011;10664;53.582;9.712;2023-02-02T00:29:12;11.73;;;3.07;;
21012;SDS011;10664;53.582;9.712;2023-02-02T00:31:39;15.00;;;2.80;;
21012;SDS011;10664;53.582;9.712;2023-02-02T00:34:05;10.20;;;2.57;;
21012;SDS011;10664;53.582;9.712;2023-02-02T00:36:31;8.00;;;2.80;;
21012;SDS011;10664;53.582;9.712;2023-02-02T00:38:57;7.53;;;2.57;;
21012;SDS011;10664;53.582;9.712;2023-02-02T00:41:23;10.57;;;2.70;;
21012;SDS011;10664;53.582;9.712;2023-02-02T00:43:49;9.43;;;2.40;;
21012;SDS011;10664;53.582;9.712;2023-02-02T00:46:37;10.93;;;2.50;;
21012;SDS011;10664;53.582;9.712;2023-02-02T00:49:03;9.47;;;2.70;;
21012;SDS011;10664;53.582;9.712;2023-02-02T00:51:29;10.00;;;2.57;;
21012;SDS011;10664;53.582;9.712;2023-02-02T00:53:55;13.93;;;2.83;;
21012;SDS011;10664;53.582;9.712;2023-02-02T00:56:21;9.60;;;2.93;;
21012;SDS011;10664;53.582;9.712;2023-02-02T00:58:47;14.87;;;3.10;;
21012;SDS011;10664;53.582;9.712;2023-02-02T01:01:14;8.33;;;2.53;;
21012;SDS011;10664;53.582;9.712;2023-02-02T01:03:40;12.80;;;2.83;;
21012;SDS011;10664;53.582;9.712;2023-02-02T01:06:06;13.43;;;3.10;;
21012;SDS011;10664;53.582;9.712;2023-02-02T01:08:32;10.67;;;2.40;;
21012;SDS011;10664;53.582;9.712;2023-02-02T01:10:58;14.87;;;3.07;;
21012;SDS011;10664;53.582;9.712;2023-02-02T01:13:24;9.27;;;2.40;;
21012;SDS011;10664;53.582;9.712;2023-02-02T01:15:54;8.83;;;2.57;;
21012;SDS011;10664;53.582;9.712;2023-02-02T01:18:20;11.83;;;2.77;;
21012;SDS011;10664;53.582;9.712;2023-02-02T01:20:46;16.40;;;2.90;;
21012;SDS011;10664;53.582;9.712;2023-02-02T01:23:12;13.13;;;2.70;;
21012;SDS011;10664;53.582;9.712;2023-02-02T01:25:38;13.67;;;2.63;;
21012;SDS011;10664;53.582;9.712;2023-02-02T01:28:04;11.53;;;2.50;;
21012;SDS011;10664;53.582;9.712;2023-02-02T01:30:30;11.47;;;3.10;;
21012;SDS011;10664;53.582;9.712;2023-02-02T01:32:56;10.37;;;2.30;;
21012;SDS011;10664;53.582;9.712;2023-02-02T01:35:22;13.33;;;2.73;;
21012;SDS011;10664;53.582;9.712;2023-02-02T01:37:48;9.93;;;2.60;;
21012;SDS011;10664;53.582;9.712;2023-02-02T01:40:14;15.67;;;2.70;;
21012;SDS011;10664;53.582;9.712;2023-02-02T01:42:40;12.63;;;3.13;;
21012;SDS011;10664;53.582;9.712;2023-02-02T01:45:15;13.90;;;2.77;;
21012;SDS011;10664;53.582;9.712;2023-02-02T01:47:43;6.07;;;2.33;;
21012;SDS011;10664;53.582;9.712;2023-02-02T01:50:11;13.63;;;4.47;;
21012;SDS011;10664;53.582;9.712;2023-02-02T01:52:39;10.00;;;2.50;;
21012;SDS011;10664;53.582;9.712;2023-02-02T01:55:06;10.00;;;2.40;;
21012;SDS011;10664;53.582;9.712;2023-02-02T01:57:35;13.50;;;2.90;;
21012;SDS011;10664;53.582;9.712;2023-02-02T02:00:04;11.43;;;2.50;;
21012;SDS011;10664;53.582;9.712;2023-02-02T02:02:31;9.83;;;2.33;;
21012;SDS011;10664;53.582;9.712;2023-02-02T02:04:58;11.30;;;3.10;;
21012;SDS011;10664;53.582;9.712;2023-02-02T02:07:24;13.33;;;3.27;;
21012;SDS011;10664;53.582;9.712;2023-02-02T02:09:50;11.77;;;2.83;;
21012;SDS011;10664;53.582;9.712;2023-02-02T02:12:16;14.73;;;2.27;;
21012;SDS011;10664;53.582;9.712;2023-02-02T02:14:43;13.03;;;2.53;;
21012;SDS011;10664;53.582;9.712;2023-02-02T02:20:04;11.13;;;3.07;;
21012;SDS011;10664;53.582;9.712;2023-02-02T02:29:02;11.30;;;2.70;;
21012;SDS011;10664;53.582;9.712;2023-02-02T02:34:17;9.03;;;2.70;;
21012;SDS011;10664;53.582;9.712;2023-02-02T02:37:06;11.40;;;2.53;;
21012;SDS011;10664;53.582;9.712;2023-02-02T02:39:50;11.77;;;2.70;;
21012;SDS011;10664;53.582;9.712;2023-02-02T02:42:20;8.10;;;2.43;;
21012;SDS011;10664;53.582;9.712;2023-02-02T02:44:47;12.70;;;2.87;;
21012;SDS011;10664;53.582;9.712;2023-02-02T02:47:14;16.47;;;2.50;;
21012;SDS011;10664;53.582;9.712;2023-02-02T02:49:41;13.30;;;2.93;;
21012;SDS011;10664;53.582;9.712;2023-02-02T02:52:07;11.93;;;2.80;;
21012;SDS011;10664;53.582;9.712;2023-02-02T02:54:34;11.77;;;2.27;;
21012;SDS011;10664;53.582;9.712;2023-02-02T02:57:20;14.20;;;2.40;;
21012;SDS011;10664;53.582;9.712;2023-02-02T03:08:09;12.67;;;2.40;;
21012;SDS011;10664;53.582;9.712;2023-02-02T03:10:38;7.30;;;1.93;;
21012;SDS011;10664;53.582;9.712;2023-02-02T03:13:06;10.10;;;2.37;;
21012;SDS011;10664;53.582;9.712;2023-02-02T03:15:33;8.23;;;1.77;;
21012;SDS011;10664;53.582;9.712;2023-02-02T03:17:59;9.40;;;2.00;;
21012;SDS011;10664;53.582;9.712;2023-02-02T03:20:25;8.77;;;2.30;;
21012;SDS011;10664;53.582;9.712;2023-02-02T03:22:51;8.90;;;2.20;;
21012;SDS011;10664;53.582;9.712;2023-02-02T03:25:17;6.13;;;2.20;;
21012;SDS011;10664;53.582;9.712;2023-02-02T03:27:43;8.17;;;1.87;;
21012;SDS011;10664;53.582;9.712;2023-02-02T03:30:10;9.57;;;2.10;;
21012;SDS011;10664;53.582;9.712;2023-02-02T03:32:37;7.30;;;2.00;;
21012;SDS011;10664;53.582;9.712;2023-02-02T03:35:03;6.37;;;1.60;;
21012;SDS011;10664;53.582;9.712;2023-02-02T03:37:29;5.87;;;1.70;;
21012;SDS011;10664;53.582;9.712;2023-02-02T03:39:55;5.53;;;1.83;;
21012;SDS011;10664;53.582;9.712;2023-02-02T03:42:21;3.80;;;1.80;;
21012;SDS011;10664;53.582;9.712;2023-02-02T03:44:47;6.40;;;1.80;;
21012;SDS011;10664;53.582;9.712;2023-02-02T03:47:13;6.77;;;1.90;;
21012;SDS011;10664;53.582;9.712;2023-02-02T03:49:39;10.03;;;2.83;;
21012;SDS011;10664;53.582;9.712;2023-02-02T03:52:05;6.57;;;2.30;;
21012;SDS011;10664;53.582;9.712;2023-02-02T03:54:31;8.03;;;1.90;;
21012;SDS011;10664;53.582;9.712;2023-02-02T03:56:57;12.03;;;2.30;;
21012;SDS011;10664;53.582;9.712;2023-02-02T03:59:23;8.80;;;2.00;;
21012;SDS011;10664;53.582;9.712;2023-02-02T04:01:49;8.90;;;2.40;;
21012;SDS011;10664;53.582;9.712;2023-02-02T04:04:15;10.07;;;1.97;;
21012;SDS011;10664;53.582;9.712;2023-02-02T04:06:41;8.47;;;2.13;;
21012;SDS011;10664;53.582;9.712;2023-02-02T04:09:07;10.70;;;2.40;;
21012;SDS011;10664;53.582;9.712;2023-02-02T04:11:33;8.23;;;1.90;;
21012;SDS011;10664;53.582;9.712;2023-02-02T04:13:59;9.33;;;3.10;;
21012;SDS011;10664;53.582;9.712;2023-02-02T04:16:25;15.87;;;2.57;;
21012;SDS011;10664;53.582;9.712;2023-02-02T04:18:51;9.67;;;2.20;;
21012;SDS011;10664;53.582;9.712;2023-02-02T04:21:17;11.40;;;2.40;;
21012;SDS011;10664;53.582;9.712;2023-02-02T04:23:43;9.20;;;2.27;;
21012;SDS011;10664;53.582;9.712;2023-02-02T04:26:09;8.00;;;2.07;;
21012;SDS011;10664;53.582;9.712;2023-02-02T04:28:35;12.20;;;2.47;;
21012;SDS011;10664;53.582;9.712;2023-02-02T04:31:01;8.17;;;2.23;;
21012;SDS011;10664;53.582;9.712;2023-02-02T04:33:27;10.70;;;2.40;;
21012;SDS011;10664;53.582;9.712;2023-02-02T04:35:53;8.60;;;1.70;;
21012;SDS011;10664;53.582;9.712;2023-02-02T04:38:19;8.80;;;2.10;;
21012;SDS011;10664;53.582;9.712;2023-02-02T04:40:46;9.00;;;2.20;;
21012;SDS011;10664;53.582;9.712;2023-02-02T04:43:12;12.77;;;2.43;;
21012;SDS011;10664;53.582;9.712;2023-02-02T04:45:38;10.07;;;2.20;;
21012;SDS011;10664;53.582;9.712;2023-02-02T04:48:04;8.17;;;2.30;;
21012;SDS011;10664;53.582;9.712;2023-02-02T04:50:30;8.73;;;2.60;;
21012;SDS011;10664;53.582;9.712;2023-02-02T04:52:56;10.80;;;2.50;;
21012;SDS011;10664;53.582;9.712;2023-02-02T04:55:23;11.53;;;3.10;;
21012;SDS011;10664;53.582;9.712;2023-02-02T04:57:49;12.27;;;2.60;;
21012;SDS011;10664;53.582;9.712;2023-02-02T05:00:15;8.50;;;2.30;;
21012;SDS011;10664;53.582;9.712;2023-02-02T05:02:41;8.70;;;2.63;;
21012;SDS011;10664;53.582;9.712;2023-02-02T05:05:09;13.87;;;2.20;;
21012;SDS011;10664;53.582;9.712;2023-02-02T05:07:35;7.27;;;2.07;;
21012;SDS011;10664;53.582;9.712;2023-02-02T05:10:02;11.47;;;2.20;;
21012;SDS011;10664;53.582;9.712;2023-02-02T05:12:29;10.30;;;2.47;;
21012;SDS011;10664;53.582;9.712;2023-02-02T05:14:55;8.67;;;2.60;;
21012;SDS011;10664;53.582;9.712;2023-02-02T05:17:20;14.67;;;2.80;;
21012;SDS011;10664;53.582;9.712;2023-02-02T05:19:46;13.10;;;2.67;;
21012;SDS011;10664;53.582;9.712;2023-02-02T05:22:12;13.60;;;2.80;;
21012;SDS011;10664;53.582;9.712;2023-02-02T05:24:38;14.63;;;2.73;;
21012;SDS011;10664;53.582;9.712;2023-02-02T05:27:04;13.03;;;3.03;;
21012;SDS011;10664;53.582;9.712;2023-02-02T05:29:30;12.63;;;2.77;;
21012;SDS011;10664;53.582;9.712;2023-02-02T05:31:56;10.47;;;2.43;;
21012;SDS011;10664;53.582;9.712;2023-02-02T05:34:23;12.47;;;2.93;;
21012;SDS011;10664;53.582;9.712;2023-02-02T05:36:49;9.53;;;2.70;;
21012;SDS011;10664;53.582;9.712;2023-02-02T05:39:15;11.57;;;2.90;;
21012;SDS011;10664;53.582;9.712;2023-02-02T05:41:41;12.53;;;2.87;;
21012;SDS011;10664;53.582;9.712;2023-02-02T05:44:08;10.13;;;2.37;;
21012;SDS011;10664;53.582;9.712;2023-02-02T05:46:34;16.07;;;2.40;;
21012;SDS011;10664;53.582;9.712;2023-02-02T05:49:00;16.63;;;2.73;;
21012;SDS011;10664;53.582;9.712;2023-02-02T05:51:30;10.40;;;2.70;;
21012;SDS011;10664;53.582;9.712;2023-02-02T05:53:56;11.30;;;2.93;;
21012;SDS011;10664;53.582;9.712;2023-02-02T05:56:22;12.77;;;2.57;;
21012;SDS011;10664;53.582;9.712;2023-02-02T05:58:48;7.83;;;2.50;;
21012;SDS011;10664;53.582;9.712;2023-02-02T06:01:15;12.33;;;3.20;;
21012;SDS011;10664;53.582;9.712;2023-02-02T06:03:41;13.37;;;2.70;;
21012;SDS011;10664;53.582;9.712;2023-02-02T06:06:07;9.03;;;2.47;;
21012;SDS011;10664;53.582;9.712;2023-02-02T06:08:34;10.77;;;2.70;;
21012;SDS011;10664;53.582;9.712;2023-02-02T06:11:06;8.80;;;2.07;;
21012;SDS011;10664;53.582;9.712;2023-02-02T06:13:32;11.30;;;2.53;;
21012;SDS011;10664;53.582;9.712;2023-02-02T06:15:59;11.40;;;2.40;;
21012;SDS011;10664;53.582;9.712;2023-02-02T06:18:25;15.40;;;3.00;;
21012;SDS011;10664;53.582;9.712;2023-02-02T06:20:57;9.57;;;2.30;;
21012;SDS011;10664;53.582;9.712;2023-02-02T06:23:24;7.23;;;2.20;;
21012;SDS011;10664;53.582;9.712;2023-02-02T06:25:50;9.50;;;2.17;;
21012;SDS011;10664;53.582;9.712;2023-02-02T06:28:15;10.83;;;2.40;;
21012;SDS011;10664;53.582;9.712;2023-02-02T06:30:41;7.03;;;2.20;;
21012;SDS011;10664;53.582;9.712;2023-02-02T06:33:07;9.97;;;2.10;;
21012;SDS011;10664;53.582;9.712;2023-02-02T06:35:34;13.03;;;2.47;;
21012;SDS011;10664;53.582;9.712;2023-02-02T06:38:00;10.00;;;2.53;;
21012;SDS011;10664;53.582;9.712;2023-02-02T06:40:26;10.93;;;2.70;;
21012;SDS011;10664;53.582;9.712;2023-02-02T06:42:59;8.17;;;2.13;;
21012;SDS011;10664;53.582;9.712;2023-02-02T06:45:26;11.77;;;2.73;;
21012;SDS011;10664;53.582;9.712;2023-02-02T06:47:52;7.77;;;1.80;;
21012;SDS011;10664;53.582;9.712;2023-02-02T06:50:18;10.40;;;2.47;;
21012;SDS011;10664;53.582;9.712;2023-02-02T06:52:51;10.77;;;2.47;;
21012;SDS011;10664;53.582;9.712;2023-02-02T06:55:17;8.50;;;2.33;;
21012;SDS011;10664;53.582;9.712;2023-02-02T06:57:43;6.50;;;2.13;;
21012;SDS011;10664;53.582;9.712;2023-02-02T07:00:10;6.97;;;2.40;;
21012;SDS011;10664;53.582;9.712;2023-02-02T07:02:36;9.93;;;2.50;;
21012;SDS011;10664;53.582;9.712;2023-02-02T07:05:02;10.37;;;2.50;;
21012;SDS011;10664;53.582;9.712;2023-02-02T07:07:31;11.70;;;2.63;;
21012;SDS011;10664;53.582;9.712;2023-02-02T07:09:57;8.57;;;2.13;;
21012;SDS011;10664;53.582;9.712;2023-02-02T07:12:23;8.67;;;2.27;;
21012;SDS011;10664;53.582;9.712;2023-02-02T07:14:50;10.97;;;2.60;;
21012;SDS011;10664;53.582;9.712;2023-02-02T07:17:16;9.93;;;2.20;;
21012;SDS011;10664;53.582;9.712;2023-02-02T07:19:42;11.33;;;3.10;;
21012;SDS011;10664;53.582;9.712;2023-02-02T07:22:08;12.13;;;3.10;;
21012;SDS011;10664;53.582;9.712;2023-02-02T07:24:34;8.93;;;2.60;;
21012;SDS011;10664;53.582;9.712;2023-02-02T07:27:02;9.10;;;2.40;;
21012;SDS011;10664;53.582;9.712;2023-02-02T07:29:28;9.73;;;2.10;;
21012;SDS011;10664;53.582;9.712;2023-02-02T07:31:54;9.53;;;2.63;;
21012;SDS011;10664;53.582;9.712;2023-02-02T07:34:20;10.53;;;2.03;;
21012;SDS011;10664;53.582;9.712;2023-02-02T07:36:46;7.63;;;2.33;;
21012;SDS011;10664;53.582;9.712;2023-02-02T07:39:12;7.37;;;1.97;;
21012;SDS011;10664;53.582;9.712;2023-02-02T07:41:38;7.87;;;2.13;;
21012;SDS011;10664;53.582;9.712;2023-02-02T07:44:04;8.33;;;2.00;;
21012;SDS011;10664;53.582;9.712;2023-02-02T07:46:30;8.13;;;1.90;;
21012;SDS011;10664;53.582;9.712;2023-02-02T07:48:56;8.03;;;1.80;;
21012;SDS011;10664;53.582;9.712;2023-02-02T07:51:22;7.10;;;1.90;;
21012;SDS011;10664;53.582;9.712;2023-02-02T07:53:50;4.73;;;1.53;;
21012;SDS011;10664;53.582;9.712;2023-02-02T07:56:17;7.23;;;2.03;;
21012;SDS011;10664;53.582;9.712;2023-02-02T07:58:43;8.07;;;1.77;;
21012;SDS011;10664;53.582;9.712;2023-02-02T08:01:10;8.87;;;1.80;;
21012;SDS011;10664;53.582;9.712;2023-02-02T08:03:37;5.07;;;1.80;;
21012;SDS011;10664;53.582;9.712;2023-02-02T08:06:10;9.13;;;2.07;;
21012;SDS011;10664;53.582;9.712;2023-02-02T08:08:37;5.83;;;1.90;;
21012;SDS011;10664;53.582;9.712;2023-02-02T08:11:03;7.80;;;1.80;;
21012;SDS011;10664;53.582;9.712;2023-02-02T08:13:29;7.10;;;1.77;;
21012;SDS011;10664;53.582;9.712;2023-02-02T08:15:58;5.70;;;1.80;;
21012;SDS011;10664;53.582;9.712;2023-02-02T08:18:24;7.33;;;1.50;;
21012;SDS011;10664;53.582;9.712;2023-02-02T08:20:50;7.93;;;1.70;;
21012;SDS011;10664;53.582;9.712;2023-02-02T08:23:16;2.53;;;1.63;;
21012;SDS011;10664;53.582;9.712;2023-02-02T08:25:47;5.70;;;1.50;;
21012;SDS011;10664;53.582;9.712;2023-02-02T08:28:13;6.57;;;1.80;;
21012;SDS011;10664;53.582;9.712;2023-02-02T08:30:39;6.37;;;1.57;;
21012;SDS011;10664;53.582;9.712;2023-02-02T08:33:05;7.10;;;1.53;;
21012;SDS011;10664;53.582;9.712;2023-02-02T08:35:31;8.40;;;1.60;;
21012;SDS011;10664;53.582;9.712;2023-02-02T08:37:57;7.47;;;1.90;;
21012;SDS011;10664;53.582;9.712;2023-02-02T08:40:26;8.53;;;1.90;;
21012;SDS011;10664;53.582;9.712;2023-02-02T08:42:53;4.87;;;1.50;;
21012;SDS011;10664;53.582;9.712;2023-02-02T08:45:19;6.67;;;2.00;;
21012;SDS011;10664;53.582;9.712;2023-02-02T08:47:45;7.87;;;1.73;;
21012;SDS011;10664;53.582;9.712;2023-02-02T08:50:11;5.37;;;1.57;;
21012;SDS011;10664;53.582;9.712;2023-02-02T08:52:37;6.37;;;1.70;;
21012;SDS011;10664;53.582;9.712;2023-02-02T08:55:03;6.20;;;1.67;;
21012;SDS011;10664;53.582;9.712;2023-02-02T08:57:29;5.17;;;1.77;;
21012;SDS011;10664;53.582;9.712;2023-02-02T08:59:56;5.67;;;1.87;;
21012;SDS011;10664;53.582;9.712;2023-02-02T09:02:22;7.10;;;1.63;;
21012;SDS011;10664;53.582;9.712;2023-02-02T09:04:48;5.07;;;1.80;;
21012;SDS011;10664;53.582;9.712;2023-02-02T09:07:14;8.83;;;1.90;;
21012;SDS011;10664;53.582;9.712;2023-02-02T09:09:40;8.83;;;1.90;;
21012;SDS011;10664;53.582;9.712;2023-02-02T09:12:06;4.57;;;2.20;;
21012;SDS011;10664;53.582;9.712;2023-02-02T09:14:32;7.17;;;1.67;;
21012;SDS011;10664;53.582;9.712;2023-02-02T09:16:58;7.17;;;2.00;;
21012;SDS011;10664;53.582;9.712;2023-02-02T09:19:24;5.83;;;1.73;;
21012;SDS011;10664;53.582;9.712;2023-02-02T09:21:50;7.30;;;1.70;;
21012;SDS011;10664;53.582;9.712;2023-02-02T09:24:16;10.27;;;1.73;;
21012;SDS011;10664;53.582;9.712;2023-02-02T09:26:43;5.73;;;1.83;;
21012;SDS011;10664;53.582;9.712;2023-02-02T09:29:13;6.17;;;1.70;;
21012;SDS011;10664;53.582;9.712;2023-02-02T09:31:39;5.43;;;1.83;;
21012;SDS011;10664;53.582;9.712;2023-02-02T09:34:07;6.67;;;1.90;;
21012;SDS011;10664;53.582;9.712;2023-02-02T09:36:33;7.77;;;1.83;;
21012;SDS011;10664;53.582;9.712;2023-02-02T09:38:59;7.13;;;2.00;;
21012;SDS011;10664;53.582;9.712;2023-02-02T09:44:12;5.43;;;1.80;;
21012;SDS011;10664;53.582;9.712;2023-02-02T09:52:11;7.83;;;2.10;;
21012;SDS011;10664;53.582;9.712;2023-02-02T09:54:40;6.03;;;1.77;;
21012;SDS011;10664;53.582;9.712;2023-02-02T09:57:15;7.47;;;1.80;;
21012;SDS011;10664;53.582;9.712;2023-02-02T09:59:42;4.90;;;1.60;;
21012;SDS011;10664;53.582;9.712;2023-02-02T10:02:26;7.53;;;2.00;;
21012;SDS011;10664;53.582;9.712;2023-02-02T10:04:59;4.43;;;1.53;;
21012;SDS011;10664;53.582;9.712;2023-02-02T10:07:30;9.03;;;1.70;;
21012;SDS011;10664;53.582;9.712;2023-02-02T10:10:04;6.13;;;2.40;;
21012;SDS011;10664;53.582;9.712;2023-02-02T10:12:37;4.57;;;2.00;;
21012;SDS011;10664;53.582;9.712;2023-02-02T10:15:14;8.67;;;1.77;;
21012;SDS011;10664;53.582;9.712;2023-02-02T10:17:54;3.40;;;1.30;;
21012;SDS011;10664;53.582;9.712;2023-02-02T10:20:25;5.07;;;1.47;;
21012;SDS011;10664;53.582;9.712;2023-02-02T10:22:56;4.33;;;1.60;;
21012;SDS011;10664;53.582;9.712;2023-02-02T10:25:24;3.47;;;1.40;;
21012;SDS011;10664;53.582;9.712;2023-02-02T10:30:43;6.27;;;1.37;;
21012;SDS011;10664;53.582;9.712;2023-02-02T10:33:19;4.33;;;1.43;;
21012;SDS011;10664;53.582;9.712;2023-02-02T10:35:56;7.10;;;1.60;;
21012;SDS011;10664;53.582;9.712;2023-02-02T10:38:36;4.07;;;1.53;;
21012;SDS011;10664;53.582;9.712;2023-02-02T10:41:18;7.43;;;1.23;;
21012;SDS011;10664;53.582;9.712;2023-02-02T10:43:50;6.60;;;2.10;;
21012;SDS011;10664;53.582;9.712;2023-02-02T10:46:30;6.87;;;1.77;;
21012;SDS011;10664;53.582;9.712;2023-02-02T10:51:35;5.70;;;2.07;;
21012;SDS011;10664;53.582;9.712;2023-02-02T10:54:02;6.00;;;1.63;;
21012;SDS011;10664;53.582;9.712;2023-02-02T10:56:38;4.03;;;1.60;;
21012;SDS011;10664;53.582;9.712;2023-02-02T10:59:06;3.73;;;1.40;;
21012;SDS011;10664;53.582;9.712;2023-02-02T11:01:34;6.03;;;1.80;;
21012;SDS011;10664;53.582;9.712;2023-02-02T11:04:00;6.33;;;2.07;;
21012;SDS011;10664;53.582;9.712;2023-02-02T11:06:45;4.07;;;1.50;;
21012;SDS011;10664;53.582;9.712;2023-02-02T11:09:14;4.30;;;1.33;;
21012;SDS011;10664;53.582;9.712;2023-02-02T11:11:41;4.00;;;1.70;;
21012;SDS011;10664;53.582;9.712;2023-02-02T11:14:14;4.30;;;1.67;;
21012;SDS011;10664;53.582;9.712;2023-02-02T11:16:41;3.47;;;1.33;;
21012;SDS011;10664;53.582;9.712;2023-02-02T11:19:20;2.97;;;1.23;;
21012;SDS011;10664;53.582;9.712;2023-02-02T11:21:47;6.40;;;1.57;;
21012;SDS011;10664;53.582;9.712;2023-02-02T11:24:20;2.97;;;1.40;;
21012;SDS011;10664;53.582;9.712;2023-02-02T11:26:47;5.87;;;1.50;;
21012;SDS011;10664;53.582;9.712;2023-02-02T11:29:18;5.17;;;1.50;;
21012;SDS011;10664;53.582;9.712;2023-02-02T11:31:48;4.30;;;1.57;;
21012;SDS011;10664;53.582;9.712;2023-02-02T11:37:25;3.70;;;1.30;;
21012;SDS011;10664;53.582;9.712;2023-02-02T11:39:32;3.17;;;1.77;;
21012;SDS011;10664;53.582;9.712;2023-02-02T11:42:03;4.47;;;1.40;;
21012;SDS011;10664;53.582;9.712;2023-02-02T11:44:29;3.67;;;1.70;;
21012;SDS011;10664;53.582;9.712;2023-02-02T11:47:00;3.63;;;1.70;;
21012;SDS011;10664;53.582;9.712;2023-02-02T11:49:26;3.97;;;1.80;;
21012;SDS011;10664;53.582;9.712;2023-02-02T11:52:03;2.83;;;1.53;;
21012;SDS011;10664;53.582;9.712;2023-02-02T11:54:30;5.37;;;1.80;;
21012;SDS011;10664;53.582;9.712;2023-02-02T11:56:58;4.50;;;1.77;;
21012;SDS011;10664;53.582;9.712;2023-02-02T11:59:25;3.20;;;1.53;;
21012;SDS011;10664;53.582;9.712;2023-02-02T12:02:08;3.50;;;2.00;;
21012;SDS011;10664;53.582;9.712;2023-02-02T12:04:35;4.83;;;1.60;;
21012;SDS011;10664;53.582;9.712;2023-02-02T12:07:00;4.60;;;1.50;;
21012;SDS011;10664;53.582;9.712;2023-02-02T12:09:26;3.60;;;1.60;;
21012;SDS011;10664;53.582;9.712;2023-02-02T12:12:05;3.17;;;1.40;;
21012;SDS011;10664;53.582;9.712;2023-02-02T12:17:24;4.57;;;1.63;;
21012;SDS011;10664;53.582;9.712;2023-02-02T12:24:55;2.23;;;1.23;;
21012;SDS011;10664;53.582;9.712;2023-02-02T12:30:03;3.13;;;1.23;;
21012;SDS011;10664;53.582;9.712;2023-02-02T12:32:39;3.97;;;1.40;;
21012;SDS011;10664;53.582;9.712;2023-02-02T12:37:52;15.33;;;10.00;;
21012;SDS011;10664;53.582;9.712;2023-02-02T12:42:50;28.30;;;16.77;;
21012;SDS011;10664;53.582;9.712;2023-02-02T12:45:22;33.20;;;16.73;;
21012;SDS011;10664;53.582;9.712;2023-02-02T12:50:26;32.93;;;16.43;;
21012;SDS011;10664;53.582;9.712;2023-02-02T12:55:39;15.93;;;9.50;;
21012;SDS011;10664;53.582;9.712;2023-02-02T12:58:12;10.13;;;6.40;;
21012;SDS011;10664;53.582;9.712;2023-02-02T13:00:56;9.63;;;5.13;;
21012;SDS011;10664;53.582;9.712;2023-02-02T13:08:27;5.63;;;2.97;;
21012;SDS011;10664;53.582;9.712;2023-02-02T13:10:57;3.17;;;2.37;;
21012;SDS011;10664;53.582;9.712;2023-02-02T13:13:27;3.20;;;1.87;;
21012;SDS011;10664;53.582;9.712;2023-02-02T13:15:59;3.53;;;1.90;;
21012;SDS011;10664;53.582;9.712;2023-02-02T13:18:29;4.00;;;1.70;;
21012;SDS011;10664;53.582;9.712;2023-02-02T13:21:04;4.30;;;1.57;;
21012;SDS011;10664;53.582;9.712;2023-02-02T13:23:32;5.00;;;1.50;;
21012;SDS011;10664;53.582;9.712;2023-02-02T13:26:03;3.90;;;1.43;;
21012;SDS011;10664;53.582;9.712;2023-02-02T13:30:58;3.33;;;1.27;;
21012;SDS011;10664;53.582;9.712;2023-02-02T13:33:29;2.37;;;1.60;;
21012;SDS011;10664;53.582;9.712;2023-02-02T13:35:56;3.10;;;1.37;;
21012;SDS011;10664;53.582;9.712;2023-02-02T13:38:25;2.53;;;1.10;;
21012;SDS011;10664;53.582;9.712;2023-02-02T13:40:54;1.90;;;1.00;;
21012;SDS011;10664;53.582;9.712;2023-02-02T13:43:24;3.33;;;1.17;;
21012;SDS011;10664;53.582;9.712;2023-02-02T13:48:24;1.30;;;1.20;;
21012;SDS011;10664;53.582;9.712;2023-02-02T13:51:05;3.13;;;1.27;;
21012;SDS011;10664;53.582;9.712;2023-02-02T13:56:08;3.17;;;1.10;;
21012;SDS011;10664;53.582;9.712;2023-02-02T14:01:13;2.10;;;1.10;;
21012;SDS011;10664;53.582;9.712;2023-02-02T14:03:41;2.57;;;1.00;;
21012;SDS011;10664;53.582;9.712;2023-02-02T14:06:14;1.83;;;0.90;;
21012;SDS011;10664;53.582;9.712;2023-02-02T14:08:44;3.10;;;1.10;;
21012;SDS011;10664;53.582;9.712;2023-02-02T14:11:15;2.17;;;1.00;;
21012;SDS011;10664;53.582;9.712;2023-02-02T14:13:45;2.90;;;1.20;;
21012;SDS011;10664;53.582;9.712;2023-02-02T14:19:05;1.53;;;1.13;;
21012;SDS011;10664;53.582;9.712;2023-02-02T14:21:56;1.37;;;1.07;;
21012;SDS011;10664;53.582;9.712;2023-02-02T14:26:55;2.53;;;1.00;;
21012;SDS011;10664;53.582;9.712;2023-02-02T14:31:55;3.47;;;1.77;;
21012;SDS011;10664;53.582;9.712;2023-02-02T14:37:04;2.03;;;1.03;;
21012;SDS011;10664;53.582;9.712;2023-02-02T14:39:36;3.30;;;1.10;;
21012;SDS011;10664;53.582;9.712;2023-02-02T14:42:08;1.20;;;1.10;;
21012;SDS011;10664;53.582;9.712;2023-02-02T14:47:45;2.20;;;1.20;;
21012;SDS011;10664;53.582;9.712;2023-02-02T14:50:39;2.40;;;1.13;;
21012;SDS011;10664;53.582;9.712;2023-02-02T14:53:05;2.07;;;1.10;;
21012;SDS011;10664;53.582;9.712;2023-02-02T14:55:34;2.63;;;1.20;;
21012;SDS011;10664;53.582;9.712;2023-02-02T14:58:01;2.97;;;0.90;;
21012;SDS011;10664;53.582;9.712;2023-02-02T15:00:29;2.40;;;1.20;;
21012;SDS011;10664;53.582;9.712;2023-02-02T15:03:04;2.87;;;1.20;;
21012;SDS011;10664;53.582;9.712;2023-02-02T15:05:42;3.07;;;1.10;;
21012;SDS011;10664;53.582;9.712;2023-02-02T15:08:24;3.80;;;1.30;;
21012;SDS011;10664;53.582;9.712;2023-02-02T15:13:20;2.17;;;1.10;;
21012;SDS011;10664;53.582;9.712;2023-02-02T15:15:49;1.93;;;0.97;;
21012;SDS011;10664;53.582;9.712;2023-02-02T15:18:20;3.30;;;1.47;;
21012;SDS011;10664;53.582;9.712;2023-02-02T15:20:49;1.93;;;0.90;;
21012;SDS011;10664;53.582;9.712;2023-02-02T15:31:01;3.83;;;1.27;;
21012;SDS011;10664;53.582;9.712;2023-02-02T15:33:32;2.23;;;1.17;;
21012;SDS011;10664;53.582;9.712;2023-02-02T15:36:02;2.20;;;1.07;;
21012;SDS011;10664;53.582;9.712;2023-02-02T15:38:31;3.30;;;1.33;;
21012;SDS011;10664;53.582;9.712;2023-02-02T15:41:02;2.40;;;1.20;;
21012;SDS011;10664;53.582;9.712;2023-02-02T15:43:28;2.70;;;1.10;;
21012;SDS011;10664;53.582;9.712;2023-02-02T15:45:54;2.23;;;1.17;;
21012;SDS011;10664;53.582;9.712;2023-02-02T15:48:26;2.13;;;1.20;;
21012;SDS011;10664;53.582;9.712;2023-02-02T15:50:56;1.27;;;1.00;;
21012;SDS011;10664;53.582;9.712;2023-02-02T15:53:30;1.90;;;1.20;;
21012;SDS011;10664;53.582;9.712;2023-02-02T15:55:56;2.63;;;1.10;;
21012;SDS011;10664;53.582;9.712;2023-02-02T15:58:24;2.83;;;1.40;;
21012;SDS011;10664;53.582;9.712;2023-02-02T16:00:55;3.07;;;1.30;;
21012;SDS011;10664;53.582;9.712;2023-02-02T16:03:23;1.63;;;1.00;;
21012;SDS011;10664;53.582;9.712;2023-02-02T16:05:51;2.60;;;1.20;;
21012;SDS011;10664;53.582;9.712;2023-02-02T16:08:19;3.50;;;1.30;;
21012;SDS011;10664;53.582;9.712;2023-02-02T16:10:46;3.50;;;1.37;;
21012;SDS011;10664;53.582;9.712;2023-02-02T16:13:20;2.20;;;1.20;;
21012;SDS011;10664;53.582;9.712;2023-02-02T16:15:53;2.27;;;1.20;;
21012;SDS011;10664;53.582;9.712;2023-02-02T16:18:19;2.73;;;1.57;;
21012;SDS011;10664;53.582;9.712;2023-02-02T16:20:45;2.37;;;1.47;;
21012;SDS011;10664;53.582;9.712;2023-02-02T16:23:12;1.70;;;1.13;;
21012;SDS011;10664;53.582;9.712;2023-02-02T16:25:47;1.70;;;1.53;;
21012;SDS011;10664;53.582;9.712;2023-02-02T16:28:14;3.13;;;1.23;;